Brooten, Minnesota
Current Conditions -  °F | °C
As of 3:33 PM on Wednesday 26 Nov 2014 (Local Time) from KGHW Reporting Station
Overcast Overcast  
Wind Chill:   Ceiling: 6000
Heat Index: 18°   Visibility: 10mi
Dew Point: 10°   Wind: 12mph
Humidity: 73%   Direction: 310°NW
Pressure: 30.29"   Gusts: NA
Location:  45.5°N, 95.12°W
Report Text: KGHW 262133Z AUTO 31010KT 10SM OVC060 M08/M12 A3029 RMK AO2
Loading
Personal Weather Stations






























Interactive Weather Map New forecast layout! Learn more

10-Day Weather Forecast

Advertisements
Track Severe Weather on mobile